Time;durP1;ratioP1;P1;durP2;ratioP2;P2;SDS_P1;SDS_P2;PMS_P1;PMS_P2;Temp;Humidity;BMP_temperature;BMP_pressure;BME280_temperature;BME280_humidity;BME280_pressure;Samples;Min_cycle;Max_cycle;Signal;HPM_P1;HPM_P2
2021/01/20 00:01:43;;;;;;;9.43;3.95;;;;;;;4.18;78.46;98913.25;4970172;28;20063;-29
2021/01/20 00:04:09;;;;;;;12.68;4.55;;;;;;;4.18;78.15;98908.13;4955284;28;20475;-29
2021/01/20 00:06:37;;;;;;;8.35;4.20;;;;;;;4.16;78.12;98891.81;4956718;28;20035;-29
2021/01/20 00:09:03;;;;;;;9.18;4.25;;;;;;;4.18;78.64;98887.59;4959245;29;20042;-30
2021/01/20 00:11:31;;;;;;;9.60;4.07;;;;;;;4.17;78.12;98880.72;4958688;29;20066;-30
2021/01/20 00:13:56;;;;;;;11.88;4.72;;;;;;;4.17;78.41;98883.28;4959159;28;20035;-31
2021/01/20 00:16:33;;;;;;;7.53;3.88;;;;;;;4.18;77.85;98876.47;4958813;28;20093;-29
2021/01/20 00:18:58;;;;;;;6.20;3.72;;;;;;;4.18;77.85;98869.63;4958122;29;20039;-30
2021/01/20 00:21:28;;;;;;;10.63;4.13;;;;;;;4.16;77.88;98865.31;4973750;28;20043;-30
2021/01/20 00:23:54;;;;;;;11.90;4.53;;;;;;;4.17;77.89;98852.50;4973788;28;20043;-30
2021/01/20 00:26:21;;;;;;;9.60;4.18;;;;;;;4.17;78.17;98859.38;4959193;28;20039;-30
2021/01/20 00:28:55;;;;;;;7.80;3.90;;;;;;;4.14;77.87;98849.03;4959571;29;20040;-30
2021/01/20 00:31:25;;;;;;;8.05;4.90;;;;;;;4.16;78.40;98845.66;4973517;28;20035;-30
2021/01/20 00:33:51;;;;;;;5.82;4.07;;;;;;;4.16;78.15;98837.97;4959255;28;20039;-30
2021/01/20 00:36:24;;;;;;;8.25;3.63;;;;;;;4.16;77.44;98849.94;4957510;29;20403;-30
2021/01/20 00:38:52;;;;;;;5.78;3.60;;;;;;;4.15;77.53;98853.31;4957854;29;20038;-31
2021/01/20 00:41:18;;;;;;;6.55;3.60;;;;;;;4.14;77.84;98839.63;4973618;28;20530;-30
2021/01/20 00:43:43;;;;;;;9.70;3.75;;;;;;;4.14;77.58;98841.34;4973518;28;20119;-30
2021/01/20 00:46:12;;;;;;;7.55;3.63;;;;;;;4.15;78.20;98836.22;4957369;29;20043;-30
2021/01/20 00:48:46;;;;;;;8.80;4.03;;;;;;;4.15;77.76;98832.81;4958496;29;20382;-31
2021/01/20 00:51:13;;;;;;;;;;;;;;;4.11;77.49;98834.44;4973473;28;20479;-31
2021/01/20 00:53:46;;;;;;;7.13;3.70;;;;;;;4.11;77.70;98824.19;4958733;28;19932;-30
2021/01/20 00:56:18;;;;;;;7.15;3.45;;;;;;;4.15;77.74;98825.13;4958525;28;20059;-30
2021/01/20 00:58:49;;;;;;;9.80;4.72;;;;;;;4.15;77.55;98828.53;4958441;28;20039;-30
2021/01/20 01:01:17;;;;;;;6.63;3.58;;;;;;;4.14;78.00;98819.09;4959410;28;20035;-30
2021/01/20 01:03:45;;;;;;;8.30;3.78;;;;;;;4.14;77.55;98820.81;4977718;28;20097;-30
2021/01/20 01:06:16;;;;;;;6.13;3.35;;;;;;;4.18;77.70;98807.25;4976640;28;20031;-30
2021/01/20 01:08:44;;;;;;;8.32;3.35;;;;;;;4.16;77.92;98806.34;4977420;28;20031;-30
2021/01/20 01:11:15;;;;;;;6.80;3.72;;;;;;;4.16;77.12;98804.63;4977444;28;20035;-30
2021/01/20 01:13:42;;;;;;;6.38;3.70;;;;;;;4.16;77.27;98799.50;4977478;28;20509;-30
2021/01/20 01:16:11;;;;;;;4.07;3.03;;;;;;;4.16;77.48;98788.38;4976281;28;20031;-30
2021/01/20 01:18:36;;;;;;;4.90;3.22;;;;;;;4.14;77.04;98793.47;4977482;28;20039;-30
2021/01/20 01:21:07;;;;;;;6.07;3.50;;;;;;;4.16;77.39;98790.94;4977115;28;20038;-30
2021/01/20 01:23:38;;;;;;;8.60;3.83;;;;;;;4.15;77.04;98786.66;4975977;28;20031;-30
2021/01/20 01:26:03;;;;;;;6.43;3.40;;;;;;;4.15;77.67;98787.50;4976038;28;20031;-29
2021/01/20 01:28:35;;;;;;;6.43;3.63;;;;;;;4.14;77.25;98785.75;4977147;28;20031;-30
2021/01/20 01:31:00;;;;;;;6.50;3.45;;;;;;;4.17;77.71;98783.28;4959809;28;20521;-30
2021/01/20 01:33:31;;;;;;;5.05;3.22;;;;;;;4.17;77.46;98777.28;4977123;28;20082;-30
2021/01/20 01:36:02;;;;;;;5.28;3.42;;;;;;;4.18;77.44;98774.75;4976956;28;20096;-30
2021/01/20 01:38:30;;;;;;;7.03;4.13;;;;;;;4.17;77.39;98777.28;4977450;28;20050;-30
2021/01/20 01:41:00;;;;;;;7.43;3.63;;;;;;;4.18;76.99;98761.06;4976936;28;20031;-30
2021/01/20 01:43:32;;;;;;;8.73;3.65;;;;;;;4.17;77.25;98772.16;4976896;28;20505;-29
2021/01/20 01:46:00;;;;;;;5.68;3.70;;;;;;;4.20;77.56;98769.66;4959506;28;20034;-31
2021/01/20 01:48:31;;;;;;;7.43;3.88;;;;;;;4.20;77.22;98762.81;4976722;28;20042;-30
2021/01/20 01:51:02;;;;;;;6.32;3.25;;;;;;;4.22;77.16;98757.72;4977093;28;20059;-30
2021/01/20 01:53:27;;;;;;;8.50;3.90;;;;;;;4.24;77.54;98764.63;4976827;28;20038;-30
2021/01/20 01:55:56;;;;;;;6.57;3.75;;;;;;;4.25;77.19;98752.66;4927295;28;20034;-30
2021/01/20 01:58:21;;;;;;;6.28;3.50;;;;;;;4.26;77.47;98762.97;4976347;28;20042;-30
2021/01/20 02:00:49;;;;;;;6.53;3.25;;;;;;;4.29;77.68;98761.28;4976571;28;20046;-30
2021/01/20 02:03:16;;;;;;;10.18;4.05;;;;;;;4.29;77.14;98761.28;4976612;28;20069;-30
2021/01/20 02:05:45;;;;;;;5.05;3.47;;;;;;;4.29;77.37;98761.28;4976401;28;20041;-30
2021/01/20 02:08:11;;;;;;;6.95;3.60;;;;;;;4.29;77.41;98768.97;4959098;28;20031;-30
2021/01/20 02:10:44;;;;;;;9.00;3.88;;;;;;;4.28;77.02;98764.69;4959168;28;20514;-30
2021/01/20 02:13:25;;;;;;;8.00;4.10;;;;;;;4.29;76.84;98767.28;4976628;28;20043;-30
2021/01/20 02:16:05;;;;;;;7.78;3.67;;;;;;;4.29;77.47;98757.03;4976336;28;20035;-30
2021/01/20 02:18:35;;;;;;;8.35;3.55;;;;;;;4.30;77.58;98747.63;4958561;28;20047;-30
2021/01/20 02:21:30;;;;;;;6.57;3.80;;;;;;;4.30;77.07;98758.75;4976574;28;20089;-31
2021/01/20 02:23:58;;;;;;;5.18;3.60;;;;;;;4.32;76.88;98749.41;4976446;28;20039;-30
2021/01/20 02:26:49;;;;;;;9.07;3.75;;;;;;;4.33;77.63;98752.81;4958778;28;20041;-30
2021/01/20 02:29:31;;;;;;;7.60;3.90;;;;;;;4.33;77.06;98737.41;4958203;28;20054;-30
2021/01/20 02:32:00;;;;;;;6.15;3.63;;;;;;;4.34;77.81;98751.97;4976220;28;20043;-30
2021/01/20 02:34:30;;;;;;;5.65;3.70;;;;;;;4.35;77.39;98734.06;4958611;28;20398;-30
2021/01/20 02:36:59;;;;;;;5.55;3.13;;;;;;;4.37;77.00;98744.34;4975945;28;20047;-30
2021/01/20 02:39:27;;;;;;;8.00;4.55;;;;;;;4.37;77.31;98739.22;4958665;28;20062;-31
2021/01/20 02:42:03;;;;;;;5.75;3.63;;;;;;;4.34;76.91;98750.31;4958409;28;20034;-30
2021/01/20 02:44:34;;;;;;;5.15;3.63;;;;;;;4.36;77.10;98740.06;4958206;28;20490;-30
2021/01/20 02:47:10;;;;;;;6.97;4.03;;;;;;;4.34;77.18;98731.47;4958481;28;20043;-30
2021/01/20 02:49:38;;;;;;;7.60;4.15;;;;;;;4.34;77.39;98736.59;4975642;28;20073;-30
2021/01/20 02:52:13;;;;;;;5.35;3.10;;;;;;;4.34;76.63;98741.72;4974736;28;20035;-30
2021/01/20 02:54:43;;;;;;;7.07;3.92;;;;;;;4.35;77.44;98741.78;4958348;28;20490;-29
2021/01/20 02:57:13;;;;;;;6.43;4.18;;;;;;;4.34;77.33;98729.78;4958979;28;20039;-30
2021/01/20 02:59:45;;;;;;;6.93;4.35;;;;;;;4.35;76.53;98728.94;4974257;28;20509;-30
2021/01/20 03:02:13;;;;;;;6.80;3.72;;;;;;;4.38;77.04;98728.97;4975562;28;20070;-30
2021/01/20 03:04:43;;;;;;;7.18;4.03;;;;;;;4.37;76.37;98722.13;4957819;28;20043;-30
2021/01/20 03:07:18;;;;;;;7.70;3.63;;;;;;;4.39;76.44;98724.72;4958243;28;20045;-30
2021/01/20 03:09:44;;;;;;;8.18;3.85;;;;;;;4.39;77.02;98723.03;4958314;28;20035;-29
2021/01/20 03:12:09;;;;;;;5.28;3.10;;;;;;;4.38;76.95;98711.03;4974191;28;20038;-30
2021/01/20 03:14:42;;;;;;;7.40;3.83;;;;;;;4.39;76.61;98699.06;4958504;28;20035;-30
2021/01/20 03:17:12;;;;;;;5.80;3.13;;;;;;;4.39;76.43;98704.22;4941746;28;20035;-30
2021/01/20 03:19:39;;;;;;;5.03;3.55;;;;;;;4.38;76.67;98690.50;4975453;28;20035;-29
2021/01/20 03:22:05;;;;;;;7.47;3.70;;;;;;;4.40;76.77;98687.97;4975444;28;20045;-30
2021/01/20 03:24:32;;;;;;;6.10;3.83;;;;;;;4.40;77.09;98677.72;4974419;28;20043;-30
2021/01/20 03:27:01;;;;;;;7.25;3.50;;;;;;;4.40;76.80;98675.16;4973449;28;20039;-30
2021/01/20 03:29:26;;;;;;;6.55;4.05;;;;;;;4.40;76.50;98668.31;4975088;28;20030;-30
2021/01/20 03:31:54;;;;;;;7.05;3.63;;;;;;;4.40;76.60;98677.72;4974950;28;20061;-30
2021/01/20 03:34:22;;;;;;;6.45;3.03;;;;;;;4.40;76.19;98663.19;4975093;28;20038;-30
2021/01/20 03:36:50;;;;;;;4.97;3.38;;;;;;;4.39;76.51;98664.00;4957606;28;20042;-30
2021/01/20 03:39:16;;;;;;;5.75;3.20;;;;;;;4.40;76.47;98658.06;4973769;28;20031;-30
2021/01/20 03:41:46;;;;;;;6.15;3.55;;;;;;;4.42;76.14;98642.69;4973012;28;20047;-30
2021/01/20 03:44:15;;;;;;;6.05;2.75;;;;;;;4.44;76.14;98647.84;4974368;28;20034;-30
2021/01/20 03:46:45;;;;;;;7.53;3.58;;;;;;;4.42;76.36;98656.38;4957414;28;20046;-30
2021/01/20 03:49:16;;;;;;;5.53;3.20;;;;;;;4.42;76.34;98651.25;4974237;28;20049;-30
2021/01/20 03:51:47;;;;;;;5.60;3.25;;;;;;;4.44;75.82;98651.25;4957464;28;20043;-30
2021/01/20 03:54:13;;;;;;;6.35;3.65;;;;;;;4.44;76.40;98638.44;4957899;28;20042;-30
2021/01/20 03:56:47;;;;;;;8.25;3.00;;;;;;;4.43;76.16;98641.88;4957503;28;20054;-30
2021/01/20 03:59:13;;;;;;;7.15;3.13;;;;;;;4.42;76.04;98628.16;4973094;28;20403;-31
2021/01/20 04:01:41;;;;;;;6.28;3.20;;;;;;;4.42;75.90;98625.59;4957714;28;20055;-31
2021/01/20 04:04:12;;;;;;;5.10;3.03;;;;;;;4.42;75.85;98645.28;4957557;28;20027;-30
2021/01/20 04:06:40;;;;;;;5.97;2.90;;;;;;;4.42;76.04;98623.03;4973529;28;20035;-30
2021/01/20 04:09:08;;;;;;;3.97;3.00;;;;;;;4.43;75.70;98652.13;4974559;28;20039;-30
2021/01/20 04:11:34;;;;;;;5.63;3.03;;;;;;;4.44;75.92;98623.03;4957195;28;20046;-30
2021/01/20 04:14:08;;;;;;;6.93;3.30;;;;;;;4.45;75.68;98629.91;4974746;28;20035;-30
2021/01/20 04:16:36;;;;;;;5.13;3.05;;;;;;;4.45;75.90;98611.94;4975095;28;20047;-30
2021/01/20 04:19:10;;;;;;;5.43;3.53;;;;;;;4.45;75.63;98613.66;4974271;28;20030;-29
2021/01/20 04:21:38;;;;;;;4.15;2.60;;;;;;;4.45;75.79;98604.25;4974577;28;20047;-30
2021/01/20 04:24:10;;;;;;;7.18;2.72;;;;;;;4.47;75.78;98602.56;4974448;28;20569;-30
2021/01/20 04:26:41;;;;;;;4.72;2.55;;;;;;;4.50;75.55;98609.47;4957792;28;20043;-30
2021/01/20 04:29:07;;;;;;;3.63;2.50;;;;;;;4.52;75.94;98595.84;4974249;28;20039;-30
2021/01/20 04:31:33;;;;;;;3.80;2.50;;;;;;;4.50;75.99;98602.63;4974546;28;20054;-30
2021/01/20 04:34:01;;;;;;;5.03;3.00;;;;;;;4.52;75.80;98592.38;4974391;28;20391;-30
2021/01/20 04:36:27;;;;;;;4.25;2.25;;;;;;;4.52;75.69;98600.97;4973187;28;20479;-30
2021/01/20 04:38:57;;;;;;;5.03;3.05;;;;;;;4.54;75.29;98611.25;4956894;28;20469;-30
2021/01/20 04:41:30;;;;;;;6.53;2.50;;;;;;;4.53;75.47;98587.31;4974333;28;20027;-30
2021/01/20 04:43:56;;;;;;;4.45;2.80;;;;;;;4.55;75.44;98575.38;4973054;28;20047;-30
2021/01/20 04:46:31;;;;;;;7.55;2.75;;;;;;;4.56;75.99;98577.09;4972998;28;20038;-30
2021/01/20 04:49:01;;;;;;;4.82;2.25;;;;;;;4.56;75.00;98582.22;4974148;28;20035;-30
2021/01/20 04:51:33;;;;;;;5.05;2.65;;;;;;;4.57;76.09;98583.06;4957507;28;20053;-30
2021/01/20 04:54:00;;;;;;;3.53;2.17;;;;;;;4.59;75.93;98560.88;4977131;28;20041;-30
2021/01/20 04:56:26;;;;;;;3.40;2.40;;;;;;;4.57;75.61;98553.16;4977971;28;20042;-30
2021/01/20 04:58:57;;;;;;;3.17;2.10;;;;;;;4.61;76.21;98571.16;4976480;28;20041;-30
2021/01/20 05:01:23;;;;;;;6.90;3.80;;;;;;;4.61;75.44;98578.84;4977279;28;20042;-30
2021/01/20 05:03:49;;;;;;;4.05;2.28;;;;;;;4.60;75.80;98564.28;4960311;28;20391;-29
2021/01/20 05:06:22;;;;;;;3.60;2.17;;;;;;;4.60;75.64;98567.75;4960355;28;20063;-30
2021/01/20 05:08:52;;;;;;;3.95;2.17;;;;;;;4.58;75.65;98556.56;4976466;28;20039;-30
2021/01/20 05:11:37;;;;;;;7.53;2.47;;;;;;;4.57;75.25;98567.69;4976626;28;20068;-30
2021/01/20 05:14:16;;;;;;;4.05;2.33;;;;;;;4.55;75.54;98569.34;4944892;28;20034;-30
2021/01/20 05:16:46;;;;;;;7.10;2.20;;;;;;;4.56;75.57;98559.13;4959871;28;20486;-30
2021/01/20 05:19:14;;;;;;;5.10;2.10;;;;;;;4.55;75.76;98562.53;4975856;28;20034;-30
2021/01/20 05:22:04;;;;;;;3.58;2.50;;;;;;;4.53;75.11;98558.19;4976189;28;20518;-30
2021/01/20 05:24:34;;;;;;;6.18;2.33;;;;;;;4.56;75.70;98558.25;4977391;28;20039;-30
2021/01/20 05:27:03;;;;;;;3.72;2.00;;;;;;;4.54;75.60;98547.97;4959724;28;20030;-30
2021/01/20 05:29:34;;;;;;;5.38;2.30;;;;;;;4.53;75.71;98545.38;4960042;28;20050;-30
2021/01/20 05:32:16;;;;;;;4.50;2.72;;;;;;;4.53;75.22;98542.78;4960306;28;20038;-30
2021/01/20 05:34:58;;;;;;;4.75;2.75;;;;;;;4.53;75.56;98542.78;4944135;28;20074;-30
2021/01/20 05:37:31;;;;;;;4.63;2.55;;;;;;;4.54;75.29;98532.59;4975705;28;20380;-30
2021/01/20 05:40:09;;;;;;;4.38;2.53;;;;;;;4.55;75.02;98529.19;4976826;28;20030;-30
2021/01/20 05:42:51;;;;;;;5.70;2.50;;;;;;;4.56;75.28;98527.47;4976216;28;20089;-30
2021/01/20 05:45:22;;;;;;;6.10;2.70;;;;;;;4.56;75.00;98522.31;4959293;28;20431;-30
2021/01/20 05:48:04;;;;;;;4.30;2.72;;;;;;;4.56;74.91;98512.94;4959519;28;20163;-31
2021/01/20 05:50:34;;;;;;;2.88;1.95;;;;;;;4.56;75.27;98518.06;4976917;28;20031;-30
2021/01/20 05:53:10;;;;;;;3.15;2.05;;;;;;;4.56;75.47;98515.50;4975410;28;20047;-30
2021/01/20 05:55:37;;;;;;;4.47;2.42;;;;;;;4.58;74.97;98525.78;4959450;28;20042;-30
2021/01/20 05:58:04;;;;;;;3.08;2.28;;;;;;;4.61;75.60;98517.25;4958903;28;20073;-31
2021/01/20 06:00:30;;;;;;;3.03;2.28;;;;;;;4.63;75.68;98515.59;4960004;28;20125;-30
2021/01/20 06:02:57;;;;;;;3.80;2.17;;;;;;;4.64;75.44;98522.44;4959242;28;20530;-30
2021/01/20 06:05:24;;;;;;;6.30;2.20;;;;;;;4.64;75.35;98507.06;4959128;28;20074;-30
2021/01/20 06:07:53;;;;;;;2.75;2.10;;;;;;;4.62;75.91;98508.72;4958999;28;20035;-30
2021/01/20 06:10:22;;;;;;;3.20;1.95;;;;;;;4.64;75.71;98522.44;4959353;28;20138;-29
2021/01/20 06:12:48;;;;;;;6.07;2.50;;;;;;;4.65;75.80;98513.91;4975188;28;20042;-30
2021/01/20 06:15:17;;;;;;;3.30;2.10;;;;;;;4.66;75.62;98506.25;4959056;28;20030;-30
2021/01/20 06:17:50;;;;;;;2.90;1.88;;;;;;;4.67;75.85;98496.84;4958797;28;20093;-30
2021/01/20 06:20:23;;;;;;;2.88;2.25;;;;;;;4.68;75.72;98508.84;4975617;28;20062;-30
2021/01/20 06:22:53;;;;;;;4.95;1.98;;;;;;;4.69;75.01;98501.13;4958831;28;20046;-30
2021/01/20 06:25:32;;;;;;;4.18;2.40;;;;;;;4.69;75.32;98501.13;4976176;28;20050;-31
2021/01/20 06:28:08;;;;;;;4.10;1.95;;;;;;;4.73;75.30;98522.59;4975754;28;20038;-30
2021/01/20 06:30:49;;;;;;;3.90;1.67;;;;;;;4.72;75.57;98500.34;4975792;28;20089;-31
2021/01/20 06:33:17;;;;;;;5.53;2.40;;;;;;;4.72;75.70;98521.72;4975870;28;20442;-31
2021/01/20 06:35:45;;;;;;;4.65;1.98;;;;;;;4.75;75.44;98523.47;4975731;28;20073;-31
2021/01/20 06:38:35;;;;;;;4.30;2.67;;;;;;;4.74;75.40;98521.78;4976379;28;20130;-30
2021/01/20 06:41:02;;;;;;;3.72;1.65;;;;;;;4.74;75.02;98521.78;4954008;28;20042;-30
2021/01/20 06:43:33;;;;;;;4.20;2.30;;;;;;;4.76;75.09;98519.22;4975676;28;20125;-30
2021/01/20 06:46:26;;;;;;;3.90;2.58;;;;;;;4.73;75.23;98522.59;4958073;28;20034;-30
2021/01/20 06:48:54;;;;;;;6.68;2.10;;;;;;;4.72;76.12;98532.00;4974679;28;20035;-30
2021/01/20 06:51:30;;;;;;;3.67;1.88;;;;;;;4.75;75.38;98545.72;4975887;28;20049;-30
2021/01/20 06:54:07;;;;;;;5.35;2.42;;;;;;;4.76;75.62;98532.03;4975964;28;20038;-30
2021/01/20 06:56:46;;;;;;;4.45;1.95;;;;;;;4.76;75.41;98524.34;4975765;28;20034;-30
2021/01/20 06:59:21;;;;;;;4.15;2.40;;;;;;;4.76;75.26;98526.91;4975188;28;20059;-30
2021/01/20 07:02:02;;;;;;;5.03;2.25;;;;;;;4.76;75.19;98524.34;4974123;28;20494;-31
2021/01/20 07:04:39;;;;;;;5.53;2.03;;;;;;;4.76;74.58;98514.06;4975359;28;20045;-29
2021/01/20 07:07:11;;;;;;;4.10;2.15;;;;;;;4.77;75.57;98523.50;4975263;28;20035;-30
2021/01/20 07:09:49;;;;;;;3.05;2.10;;;;;;;4.76;75.19;98512.34;4958602;28;20039;-30
2021/01/20 07:12:24;;;;;;;4.63;2.92;;;;;;;4.77;75.46;98518.38;4974050;28;20039;-30
2021/01/20 07:14:54;;;;;;;5.82;2.05;;;;;;;4.78;75.38;98512.41;4974353;28;20085;-30
2021/01/20 07:17:21;;;;;;;4.28;2.20;;;;;;;4.77;75.19;98518.38;4974024;28;20066;-31
2021/01/20 07:19:48;;;;;;;4.10;2.08;;;;;;;4.78;75.19;98514.97;4957030;28;20438;-31
2021/01/20 07:22:14;;;;;;;3.90;1.92;;;;;;;4.80;75.43;98523.56;4975195;28;20043;-31
2021/01/20 07:24:44;;;;;;;4.60;2.20;;;;;;;4.81;75.27;98509.88;4974948;28;20031;-31
2021/01/20 07:27:11;;;;;;;3.47;2.22;;;;;;;4.81;75.58;98512.44;4957942;28;20501;-30
2021/01/20 07:29:40;;;;;;;4.32;2.13;;;;;;;4.80;75.30;98496.16;4974950;28;20077;-30
2021/01/20 07:32:08;;;;;;;6.88;2.15;;;;;;;4.80;75.67;98493.59;4974842;28;20046;-31
2021/01/20 07:34:41;;;;;;;3.72;2.13;;;;;;;4.80;75.00;98491.03;4957234;28;20522;-30
2021/01/20 07:37:13;;;;;;;4.28;2.65;;;;;;;4.80;75.13;98487.63;4957555;28;20057;-30
2021/01/20 07:39:39;;;;;;;3.88;2.45;;;;;;;4.81;75.71;98494.47;4974501;28;20035;-30
2021/01/20 07:42:07;;;;;;;2.45;1.95;;;;;;;4.79;75.12;98486.75;4957211;28;20063;-30
2021/01/20 07:44:35;;;;;;;3.58;2.00;;;;;;;4.81;75.51;98479.09;4974420;28;20061;-30
2021/01/20 07:47:02;;;;;;;7.22;2.75;;;;;;;4.82;75.54;98486.78;4974478;28;20035;-30
2021/01/20 07:49:28;;;;;;;3.67;2.17;;;;;;;4.83;75.29;98482.50;4957396;28;20113;-30
2021/01/20 07:52:10;;;;;;;3.15;2.30;;;;;;;4.83;74.93;98503.91;4957708;28;20042;-30
2021/01/20 07:54:40;;;;;;;4.90;2.85;;;;;;;4.81;74.54;98495.34;4974290;28;20037;-30
2021/01/20 07:57:07;;;;;;;5.57;3.03;;;;;;;4.81;75.05;98481.66;4974672;28;20185;-30
2021/01/20 07:59:36;;;;;;;3.17;2.13;;;;;;;4.79;74.87;98473.91;4957131;28;20513;-30
2021/01/20 08:02:29;;;;;;;4.63;2.55;;;;;;;4.77;74.34;98464.47;4974291;28;20490;-30
2021/01/20 08:05:02;;;;;;;4.27;2.63;;;;;;;4.78;74.73;98473.91;4973377;28;20052;-30
2021/01/20 08:07:27;;;;;;;5.65;2.33;;;;;;;4.80;75.06;98473.06;4957232;28;20296;-30
2021/01/20 08:09:53;;;;;;;5.80;2.10;;;;;;;4.79;75.14;98478.19;4974519;28;20042;-30
2021/01/20 08:12:29;;;;;;;4.88;2.38;;;;;;;4.79;74.62;98468.78;4974560;28;20039;-30
2021/01/20 08:14:55;;;;;;;3.72;2.50;;;;;;;4.79;74.66;98468.78;4957605;28;20043;-30
2021/01/20 08:17:21;;;;;;;5.22;2.00;;;;;;;4.79;74.80;98434.56;4974552;28;20173;-29
2021/01/20 08:19:48;;;;;;;4.68;3.15;;;;;;;4.78;74.37;98448.22;4974592;28;20045;-30
2021/01/20 08:22:18;;;;;;;3.67;2.47;;;;;;;4.78;74.25;98436.25;4957298;28;20027;-30
2021/01/20 08:24:45;;;;;;;3.50;2.10;;;;;;;4.77;74.00;98436.22;4974565;28;20045;-30
2021/01/20 08:27:14;;;;;;;3.00;2.08;;;;;;;4.76;73.74;98439.63;4958129;28;20077;-30
2021/01/20 08:29:50;;;;;;;3.65;2.63;;;;;;;4.75;72.47;98436.19;4961196;28;20039;-30
2021/01/20 08:32:15;;;;;;;4.15;2.17;;;;;;;4.77;74.55;98426.81;4978030;28;20042;-30
2021/01/20 08:34:43;;;;;;;3.70;2.40;;;;;;;4.76;73.88;98419.97;4978275;28;20064;-31
2021/01/20 08:37:12;;;;;;;3.75;2.13;;;;;;;4.78;73.86;98420.84;4978131;28;20034;-30
2021/01/20 08:40:02;;;;;;;4.57;2.30;;;;;;;4.77;74.11;98408.00;4959481;28;20053;-30
2021/01/20 08:42:40;;;;;;;3.50;2.10;;;;;;;4.79;72.84;98417.44;4959945;28;20038;-30
2021/01/20 08:45:33;;;;;;;4.68;2.00;;;;;;;4.79;71.77;98414.88;4977505;28;20462;-30
2021/01/20 08:48:08;;;;;;;4.18;2.25;;;;;;;4.77;72.55;98421.69;4973770;28;20460;-31
2021/01/20 08:50:42;;;;;;;3.80;2.28;;;;;;;4.77;73.56;98426.81;4975515;28;20495;-30
2021/01/20 08:53:23;;;;;;;3.60;2.00;;;;;;;4.78;72.85;98412.28;4975766;28;20039;-30
2021/01/20 08:55:48;;;;;;;4.05;2.45;;;;;;;4.77;74.03;98411.41;4976979;28;20034;-30
2021/01/20 08:58:24;;;;;;;2.75;1.83;;;;;;;4.78;72.55;98418.28;4977996;28;20041;-30
2021/01/20 09:00:54;;;;;;;3.60;2.33;;;;;;;4.79;73.40;98414.88;4976519;28;20042;-30
2021/01/20 09:03:23;;;;;;;5.88;2.38;;;;;;;4.80;73.12;98446.56;4977975;28;20089;-30
2021/01/20 09:05:50;;;;;;;2.95;2.17;;;;;;;4.78;73.50;98440.53;4976254;28;20062;-30
2021/01/20 09:08:19;;;;;;;3.83;1.83;;;;;;;4.80;73.21;98437.13;4977044;28;20097;-30
2021/01/20 09:10:46;;;;;;;4.68;2.25;;;;;;;4.80;73.67;98429.44;4977582;28;20035;-30
2021/01/20 09:13:14;;;;;;;4.07;2.40;;;;;;;4.81;72.94;98451.69;4976545;28;20074;-30
2021/01/20 09:15:39;;;;;;;3.33;2.00;;;;;;;4.84;73.37;98443.16;4977648;28;20031;-30
2021/01/20 09:18:06;;;;;;;4.43;2.35;;;;;;;4.84;72.64;98438.03;4975916;28;20093;-30
2021/01/20 09:20:36;;;;;;;4.50;2.25;;;;;;;4.84;71.67;98423.50;4976513;28;20049;-30
2021/01/20 09:23:03;;;;;;;5.70;2.17;;;;;;;4.84;72.49;98427.75;4976095;28;20038;-30
2021/01/20 09:25:29;;;;;;;3.10;1.92;;;;;;;4.86;72.36;98442.34;4959927;28;20138;-31
2021/01/20 09:27:54;;;;;;;5.78;2.45;;;;;;;4.86;72.97;98431.22;4976828;28;20046;-30
2021/01/20 09:30:23;;;;;;;4.18;2.25;;;;;;;4.86;72.62;98432.09;4977200;28;20483;-30
2021/01/20 09:32:48;;;;;;;4.63;2.45;;;;;;;4.86;72.93;98420.94;4976996;28;20118;-30
2021/01/20 09:35:19;;;;;;;5.28;3.38;;;;;;;4.87;72.84;98417.53;4977094;28;20034;-31
2021/01/20 09:37:46;;;;;;;4.20;2.45;;;;;;;4.88;72.29;98399.59;4975578;28;20399;-31
2021/01/20 09:40:17;;;;;;;4.85;2.08;;;;;;;4.87;71.16;98385.03;4959037;28;20078;-31
2021/01/20 09:42:47;;;;;;;3.90;2.30;;;;;;;4.87;71.05;98356.81;4975438;28;20038;-30
2021/01/20 09:45:27;;;;;;;6.53;2.10;;;;;;;4.89;70.86;98374.78;4943196;28;20031;-31
2021/01/20 09:48:02;;;;;;;3.10;1.85;;;;;;;4.91;71.94;98372.22;4976695;28;20035;-31
2021/01/20 09:50:32;;;;;;;3.88;2.35;;;;;;;4.93;72.25;98380.81;4976146;28;20469;-30
2021/01/20 09:52:58;;;;;;;4.95;2.33;;;;;;;4.93;72.08;98402.22;4977069;28;20137;-30
2021/01/20 09:55:23;;;;;;;4.10;1.92;;;;;;;4.95;72.07;98413.38;4975104;28;20566;-30
2021/01/20 09:57:49;;;;;;;4.40;2.10;;;;;;;4.97;72.32;98413.38;4975278;28;20039;-30
2021/01/20 10:00:15;;;;;;;3.30;2.22;;;;;;;4.96;72.38;98416.78;4975535;28;20490;-30
2021/01/20 10:02:41;;;;;;;4.25;2.40;;;;;;;4.97;72.39;98432.22;4975275;28;20461;-30
2021/01/20 10:05:08;;;;;;;3.50;2.45;;;;;;;4.97;71.96;98426.22;4959540;28;20074;-30
2021/01/20 10:07:33;;;;;;;6.45;2.65;;;;;;;4.98;72.36;98427.94;4976809;28;20554;-30
2021/01/20 10:10:03;;;;;;;6.53;4.07;;;;;;;4.99;71.75;98424.53;4976580;28;20114;-30
2021/01/20 10:12:30;;;;;;;5.57;4.13;;;;;;;4.99;71.77;98427.09;4976524;28;20139;-30
2021/01/20 10:15:02;;;;;;;4.45;3.20;;;;;;;4.99;71.41;98427.94;4959496;28;20490;-30
2021/01/20 10:17:27;;;;;;;5.78;3.45;;;;;;;5.02;72.21;98428.00;4958968;28;20402;-30
2021/01/20 10:19:56;;;;;;;5.18;3.25;;;;;;;5.02;71.83;98425.44;4976028;28;20094;-30
2021/01/20 10:22:22;;;;;;;6.10;3.03;;;;;;;5.01;72.51;98421.13;4976301;28;20101;-30
2021/01/20 10:24:53;;;;;;;4.60;2.63;;;;;;;5.02;70.71;98416.88;4976127;28;20031;-30
2021/01/20 10:27:19;;;;;;;3.75;2.50;;;;;;;5.03;71.81;98410.91;4958827;28;20039;-30
2021/01/20 10:29:47;;;;;;;3.88;2.30;;;;;;;5.05;72.19;98404.09;4958742;28;20034;-30
2021/01/20 10:32:13;;;;;;;6.07;2.75;;;;;;;5.06;71.50;98415.19;4974927;28;20045;-30
2021/01/20 10:34:40;;;;;;;5.63;3.35;;;;;;;5.08;72.35;98416.94;4975307;28;20043;-30
2021/01/20 10:37:09;;;;;;;4.65;2.53;;;;;;;5.07;71.29;98404.94;4975901;28;20399;-30
2021/01/20 10:39:37;;;;;;;6.43;2.40;;;;;;;5.08;71.53;98396.38;4974564;28;20517;-30
2021/01/20 10:42:03;;;;;;;4.22;2.33;;;;;;;5.10;71.75;98392.13;4958413;28;20045;-30
2021/01/20 10:44:29;;;;;;;7.15;3.80;;;;;;;5.12;71.60;98377.63;4975597;28;20026;-31
2021/01/20 10:46:54;;;;;;;8.23;5.30;;;;;;;5.13;71.08;98378.50;4974399;28;20491;-31
2021/01/20 10:49:20;;;;;;;11.15;5.40;;;;;;;5.12;71.67;98362.19;4975496;28;20517;-31
2021/01/20 10:51:45;;;;;;;14.75;5.75;;;;;;;5.14;71.63;98369.91;4975406;28;20047;-30
2021/01/20 10:54:13;;;;;;;7.00;4.13;;;;;;;5.16;71.51;98353.69;4974147;28;20034;-30
2021/01/20 10:56:40;;;;;;;5.95;3.80;;;;;;;5.18;71.88;98351.13;4975708;28;20074;-30
2021/01/20 10:59:05;;;;;;;7.15;3.17;;;;;;;5.18;71.04;98349.44;4975070;28;20046;-30
2021/01/20 11:01:31;;;;;;;5.22;3.28;;;;;;;5.20;72.30;98341.75;4975242;28;20573;-30
2021/01/20 11:03:56;;;;;;;7.05;3.55;;;;;;;5.17;71.06;98332.31;4975405;28;20035;-30
2021/01/20 11:06:30;;;;;;;5.00;2.78;;;;;;;5.21;71.59;98337.47;4975386;28;20435;-30
2021/01/20 11:08:59;;;;;;;4.63;2.80;;;;;;;5.21;71.21;98330.63;4974488;28;20122;-30
2021/01/20 11:11:27;;;;;;;9.80;3.78;;;;;;;5.22;71.53;98329.78;4974300;28;20034;-30
2021/01/20 11:13:55;;;;;;;6.20;2.45;;;;;;;5.25;71.18;98328.94;4975218;28;20041;-30
2021/01/20 11:16:20;;;;;;;4.53;2.20;;;;;;;5.30;71.15;98329.84;4975267;28;20039;-30
2021/01/20 11:18:50;;;;;;;5.40;2.90;;;;;;;5.33;71.28;98322.19;4974873;28;20088;-30
2021/01/20 11:21:17;;;;;;;3.80;1.98;;;;;;;5.39;71.29;98332.50;4975079;28;20038;-30
2021/01/20 11:23:43;;;;;;;4.40;2.40;;;;;;;5.44;71.58;98324.84;4973614;28;20109;-30
2021/01/20 11:26:09;;;;;;;4.78;1.98;;;;;;;5.47;71.13;98309.44;4974684;28;20517;-30
2021/01/20 11:28:35;;;;;;;6.03;2.22;;;;;;;5.49;70.93;98311.19;4974452;28;20031;-30
2021/01/20 11:31:04;;;;;;;3.78;2.00;;;;;;;5.50;71.33;98301.75;4974967;28;20105;-30
2021/01/20 11:33:30;;;;;;;4.35;2.28;;;;;;;5.52;71.84;98306.94;4974697;28;20081;-31
2021/01/20 11:35:55;;;;;;;3.53;2.03;;;;;;;5.50;70.83;98306.91;4973643;28;20038;-30
2021/01/20 11:38:21;;;;;;;9.30;2.88;;;;;;;5.53;71.01;98311.22;4974789;28;20031;-30
2021/01/20 11:40:46;;;;;;;5.13;3.13;;;;;;;5.54;70.89;98302.66;4974889;28;20073;-30
2021/01/20 11:43:12;;;;;;;4.43;2.33;;;;;;;5.54;70.83;98284.66;4957662;28;20035;-30
2021/01/20 11:45:38;;;;;;;3.95;2.92;;;;;;;5.57;70.19;98279.53;4974805;28;20042;-30
2021/01/20 11:48:12;;;;;;;3.08;1.88;;;;;;;5.62;70.42;98280.44;4973607;28;20039;-30
2021/01/20 11:50:40;;;;;;;4.07;2.53;;;;;;;5.65;71.54;98267.63;4973909;28;20043;-30
2021/01/20 11:53:05;;;;;;;4.13;2.75;;;;;;;5.69;71.25;98268.50;4973515;28;20509;-30
2021/01/20 11:55:31;;;;;;;4.30;2.08;;;;;;;5.73;71.23;98262.53;4974676;28;20043;-31